Penetanguishene, Canada
Current Conditions -  °F | °C
As of 4:28 PM on Saturday 22 Nov 2014 (Local Time) from CYQA Reporting Station
Light Rain Light Rain  
Wind Chill: 28°   Ceiling: 1000
Heat Index: 34°   Visibility: 1.2mi
Dew Point: 34°   Wind: 7mph
Humidity: 100%   Direction: 190°S
Pressure: 29.85"   Gusts: NA
Location:  44.77°N, 79.93°W
Report Text: CYQA 222128Z AUTO 19006KT 1 1/4SM -RA BR OVC010 01/01 A2985 RMK SLP122
Loading
Personal Weather Stations






























Interactive Weather Map New forecast layout! Learn more

10-Day Weather Forecast

Advertisements
Track Severe Weather on mobile